sensor_id;sensor_type;location;lat;lon;timestamp;temperature;humidity
64951;DHT22;51482;47.014;7.652;2024-03-08T00:00:19;1.10;99.90
64951;DHT22;51482;47.014;7.652;2024-03-08T00:02:48;1.10;99.90
64951;DHT22;51482;47.014;7.652;2024-03-08T00:05:16;1.00;99.90
64951;DHT22;51482;47.014;7.652;2024-03-08T00:07:42;0.90;99.90
64951;DHT22;51482;47.014;7.652;2024-03-08T00:10:10;1.00;99.90
64951;DHT22;51482;47.014;7.652;2024-03-08T00:12:37;1.10;99.90
64951;DHT22;51482;47.014;7.652;2024-03-08T00:15:03;1.10;99.90
64951;DHT22;51482;47.014;7.652;2024-03-08T00:17:29;1.10;99.90
64951;DHT22;51482;47.014;7.652;2024-03-08T00:19:54;1.10;99.90
64951;DHT22;51482;47.014;7.652;2024-03-08T00:22:20;1.60;99.90
64951;DHT22;51482;47.014;7.652;2024-03-08T00:24:47;1.60;99.90
64951;DHT22;51482;47.014;7.652;2024-03-08T00:27:14;0.60;99.90
64951;DHT22;51482;47.014;7.652;2024-03-08T00:29:41;0.90;99.90
64951;DHT22;51482;47.014;7.652;2024-03-08T00:32:06;1.20;99.90
64951;DHT22;51482;47.014;7.652;2024-03-08T00:34:35;1.30;99.90
64951;DHT22;51482;47.014;7.652;2024-03-08T00:37:02;1.20;99.90
64951;DHT22;51482;47.014;7.652;2024-03-08T00:39:27;0.50;99.90
64951;DHT22;51482;47.014;7.652;2024-03-08T00:41:53;1.60;99.90
64951;DHT22;51482;47.014;7.652;2024-03-08T00:44:18;1.30;99.90
64951;DHT22;51482;47.014;7.652;2024-03-08T00:46:44;1.10;99.90
64951;DHT22;51482;47.014;7.652;2024-03-08T00:49:10;1.10;99.90
64951;DHT22;51482;47.014;7.652;2024-03-08T00:51:35;1.00;99.90
64951;DHT22;51482;47.014;7.652;2024-03-08T00:54:01;1.20;99.90
64951;DHT22;51482;47.014;7.652;2024-03-08T00:56:27;0.80;99.90
64951;DHT22;51482;47.014;7.652;2024-03-08T00:58:52;1.00;99.90
64951;DHT22;51482;47.014;7.652;2024-03-08T01:01:19;1.10;99.90
64951;DHT22;51482;47.014;7.652;2024-03-08T01:03:44;1.00;99.90
64951;DHT22;51482;47.014;7.652;2024-03-08T01:06:10;0.90;99.90
64951;DHT22;51482;47.014;7.652;2024-03-08T01:08:37;0.60;99.90
64951;DHT22;51482;47.014;7.652;2024-03-08T01:11:04;0.40;99.90
64951;DHT22;51482;47.014;7.652;2024-03-08T01:13:30;0.90;99.90
64951;DHT22;51482;47.014;7.652;2024-03-08T01:15:56;1.00;99.90
64951;DHT22;51482;47.014;7.652;2024-03-08T01:18:21;1.00;99.90
64951;DHT22;51482;47.014;7.652;2024-03-08T01:20:47;1.10;99.90
64951;DHT22;51482;47.014;7.652;2024-03-08T01:23:12;0.50;99.90
64951;DHT22;51482;47.014;7.652;2024-03-08T01:25:39;1.10;99.90
64951;DHT22;51482;47.014;7.652;2024-03-08T01:28:05;0.90;99.90
64951;DHT22;51482;47.014;7.652;2024-03-08T01:30:31;1.20;99.90
64951;DHT22;51482;47.014;7.652;2024-03-08T01:32:58;0.70;99.90
64951;DHT22;51482;47.014;7.652;2024-03-08T01:35:23;1.50;99.90
64951;DHT22;51482;47.014;7.652;2024-03-08T01:37:49;1.60;99.90
64951;DHT22;51482;47.014;7.652;2024-03-08T01:40:15;0.70;99.90
64951;DHT22;51482;47.014;7.652;2024-03-08T01:42:42;1.60;99.90
64951;DHT22;51482;47.014;7.652;2024-03-08T01:45:08;1.00;99.90
64951;DHT22;51482;47.014;7.652;2024-03-08T01:47:34;1.00;99.90
64951;DHT22;51482;47.014;7.652;2024-03-08T01:50:00;1.40;99.90
64951;DHT22;51482;47.014;7.652;2024-03-08T01:52:29;0.90;99.90
64951;DHT22;51482;47.014;7.652;2024-03-08T01:54:59;1.80;99.90
64951;DHT22;51482;47.014;7.652;2024-03-08T01:57:26;1.00;99.90
64951;DHT22;51482;47.014;7.652;2024-03-08T01:59:52;0.40;99.90
64951;DHT22;51482;47.014;7.652;2024-03-08T02:02:21;1.10;99.90
64951;DHT22;51482;47.014;7.652;2024-03-08T02:04:47;1.50;99.90
64951;DHT22;51482;47.014;7.652;2024-03-08T02:07:13;1.00;99.90
64951;DHT22;51482;47.014;7.652;2024-03-08T02:09:39;1.40;99.90
64951;DHT22;51482;47.014;7.652;2024-03-08T02:12:05;0.20;99.90
64951;DHT22;51482;47.014;7.652;2024-03-08T02:14:31;0.70;99.90
64951;DHT22;51482;47.014;7.652;2024-03-08T02:17:00;0.60;99.90
64951;DHT22;51482;47.014;7.652;2024-03-08T02:19:26;0.00;99.90
64951;DHT22;51482;47.014;7.652;2024-03-08T02:21:51;1.10;99.90
64951;DHT22;51482;47.014;7.652;2024-03-08T02:24:17;-0.20;99.90
64951;DHT22;51482;47.014;7.652;2024-03-08T02:26:43;0.30;99.90
64951;DHT22;51482;47.014;7.652;2024-03-08T02:29:09;0.90;99.90
64951;DHT22;51482;47.014;7.652;2024-03-08T02:31:34;0.60;99.90
64951;DHT22;51482;47.014;7.652;2024-03-08T02:34:00;0.40;99.90
64951;DHT22;51482;47.014;7.652;2024-03-08T02:36:26;0.60;99.90
64951;DHT22;51482;47.014;7.652;2024-03-08T02:38:51;0.50;99.90
64951;DHT22;51482;47.014;7.652;2024-03-08T02:41:17;0.50;99.90
64951;DHT22;51482;47.014;7.652;2024-03-08T02:43:42;0.90;99.90
64951;DHT22;51482;47.014;7.652;2024-03-08T02:46:09;0.50;99.90
64951;DHT22;51482;47.014;7.652;2024-03-08T02:48:35;0.70;99.90
64951;DHT22;51482;47.014;7.652;2024-03-08T02:51:01;1.10;99.90
64951;DHT22;51482;47.014;7.652;2024-03-08T02:53:27;0.20;99.90
64951;DHT22;51482;47.014;7.652;2024-03-08T02:55:53;0.50;99.90
64951;DHT22;51482;47.014;7.652;2024-03-08T02:58:19;0.00;99.90
64951;DHT22;51482;47.014;7.652;2024-03-08T03:00:44;0.70;99.90
64951;DHT22;51482;47.014;7.652;2024-03-08T03:03:10;0.10;99.90
64951;DHT22;51482;47.014;7.652;2024-03-08T03:05:35;0.10;99.90
64951;DHT22;51482;47.014;7.652;2024-03-08T03:08:01;0.20;99.90
64951;DHT22;51482;47.014;7.652;2024-03-08T03:10:29;0.10;99.90
64951;DHT22;51482;47.014;7.652;2024-03-08T03:12:54;0.30;99.90
64951;DHT22;51482;47.014;7.652;2024-03-08T03:15:20;-0.40;99.90
64951;DHT22;51482;47.014;7.652;2024-03-08T03:17:47;0.60;99.90
64951;DHT22;51482;47.014;7.652;2024-03-08T03:20:13;0.70;99.90
64951;DHT22;51482;47.014;7.652;2024-03-08T03:22:40;0.60;99.90
64951;DHT22;51482;47.014;7.652;2024-03-08T03:25:12;-0.40;99.90
64951;DHT22;51482;47.014;7.652;2024-03-08T03:27:38;-0.40;99.90
64951;DHT22;51482;47.014;7.652;2024-03-08T03:30:06;-0.50;99.90
64951;DHT22;51482;47.014;7.652;2024-03-08T03:32:50;0.20;99.90
64951;DHT22;51482;47.014;7.652;2024-03-08T03:35:16;0.30;99.90
64951;DHT22;51482;47.014;7.652;2024-03-08T03:37:42;0.30;99.90
64951;DHT22;51482;47.014;7.652;2024-03-08T03:40:11;0.60;99.90
64951;DHT22;51482;47.014;7.652;2024-03-08T03:42:37;0.10;99.90
64951;DHT22;51482;47.014;7.652;2024-03-08T03:45:05;0.30;99.90
64951;DHT22;51482;47.014;7.652;2024-03-08T03:47:30;0.20;99.90
64951;DHT22;51482;47.014;7.652;2024-03-08T03:49:56;0.40;99.90
64951;DHT22;51482;47.014;7.652;2024-03-08T03:52:27;0.00;99.90
64951;DHT22;51482;47.014;7.652;2024-03-08T03:54:52;-0.20;99.90
64951;DHT22;51482;47.014;7.652;2024-03-08T03:57:18;0.10;99.90
64951;DHT22;51482;47.014;7.652;2024-03-08T03:59:44;-0.10;99.90
64951;DHT22;51482;47.014;7.652;2024-03-08T04:02:09;0.10;99.90
64951;DHT22;51482;47.014;7.652;2024-03-08T04:04:35;-0.50;99.90
64951;DHT22;51482;47.014;7.652;2024-03-08T04:07:01;0.00;99.90
64951;DHT22;51482;47.014;7.652;2024-03-08T04:09:27;0.10;99.90
64951;DHT22;51482;47.014;7.652;2024-03-08T04:11:53;-0.20;99.90
64951;DHT22;51482;47.014;7.652;2024-03-08T04:14:21;0.00;99.90
64951;DHT22;51482;47.014;7.652;2024-03-08T04:16:46;0.30;99.90
64951;DHT22;51482;47.014;7.652;2024-03-08T04:19:13;0.00;99.90
64951;DHT22;51482;47.014;7.652;2024-03-08T04:21:39;-0.70;99.90
64951;DHT22;51482;47.014;7.652;2024-03-08T04:24:05;0.30;99.90
64951;DHT22;51482;47.014;7.652;2024-03-08T04:26:31;-0.30;99.90
64951;DHT22;51482;47.014;7.652;2024-03-08T04:28:56;0.50;99.90
64951;DHT22;51482;47.014;7.652;2024-03-08T04:31:22;0.40;99.90
64951;DHT22;51482;47.014;7.652;2024-03-08T04:33:48;0.90;99.90
64951;DHT22;51482;47.014;7.652;2024-03-08T04:36:13;-0.50;99.90
64951;DHT22;51482;47.014;7.652;2024-03-08T04:38:40;0.00;99.90
64951;DHT22;51482;47.014;7.652;2024-03-08T04:41:06;0.20;99.90
64951;DHT22;51482;47.014;7.652;2024-03-08T04:43:32;-0.10;99.90
64951;DHT22;51482;47.014;7.652;2024-03-08T04:45:58;-0.30;99.90
64951;DHT22;51482;47.014;7.652;2024-03-08T04:48:24;-0.10;99.90
64951;DHT22;51482;47.014;7.652;2024-03-08T04:50:52;-0.10;99.90
64951;DHT22;51482;47.014;7.652;2024-03-08T04:53:19;0.30;99.90
64951;DHT22;51482;47.014;7.652;2024-03-08T04:55:44;-0.60;99.90
64951;DHT22;51482;47.014;7.652;2024-03-08T04:58:10;0.00;99.90
64951;DHT22;51482;47.014;7.652;2024-03-08T05:00:35;0.20;99.90
64951;DHT22;51482;47.014;7.652;2024-03-08T05:03:01;-0.60;99.90
64951;DHT22;51482;47.014;7.652;2024-03-08T05:05:27;-0.80;99.90
64951;DHT22;51482;47.014;7.652;2024-03-08T05:07:54;-0.50;99.90
64951;DHT22;51482;47.014;7.652;2024-03-08T05:10:20;-0.80;99.90
64951;DHT22;51482;47.014;7.652;2024-03-08T05:12:45;-0.90;99.90
64951;DHT22;51482;47.014;7.652;2024-03-08T05:15:11;-0.20;99.90
64951;DHT22;51482;47.014;7.652;2024-03-08T05:17:36;-0.90;99.90
64951;DHT22;51482;47.014;7.652;2024-03-08T05:20:02;-1.10;99.90
64951;DHT22;51482;47.014;7.652;2024-03-08T05:22:29;-0.20;99.90
64951;DHT22;51482;47.014;7.652;2024-03-08T05:24:54;-0.30;99.90
64951;DHT22;51482;47.014;7.652;2024-03-08T05:27:20;-0.30;99.90
64951;DHT22;51482;47.014;7.652;2024-03-08T05:29:46;-1.10;99.90
64951;DHT22;51482;47.014;7.652;2024-03-08T05:32:12;-1.30;99.90
64951;DHT22;51482;47.014;7.652;2024-03-08T05:34:37;-0.90;99.90
64951;DHT22;51482;47.014;7.652;2024-03-08T05:37:04;-0.40;99.90
64951;DHT22;51482;47.014;7.652;2024-03-08T05:39:29;-0.70;99.90
64951;DHT22;51482;47.014;7.652;2024-03-08T05:41:55;-1.20;99.90
64951;DHT22;51482;47.014;7.652;2024-03-08T05:44:21;-0.80;99.90
64951;DHT22;51482;47.014;7.652;2024-03-08T05:46:47;-1.10;99.90
64951;DHT22;51482;47.014;7.652;2024-03-08T05:49:12;-1.40;99.90
64951;DHT22;51482;47.014;7.652;2024-03-08T05:51:39;-1.00;99.90
64951;DHT22;51482;47.014;7.652;2024-03-08T05:54:07;-0.50;99.90
64951;DHT22;51482;47.014;7.652;2024-03-08T05:56:34;-0.40;99.90
64951;DHT22;51482;47.014;7.652;2024-03-08T05:59:01;-1.00;99.90
64951;DHT22;51482;47.014;7.652;2024-03-08T06:01:27;-0.70;99.90
64951;DHT22;51482;47.014;7.652;2024-03-08T06:03:54;-1.00;99.90
64951;DHT22;51482;47.014;7.652;2024-03-08T06:06:22;-0.80;99.90
64951;DHT22;51482;47.014;7.652;2024-03-08T06:08:49;-0.60;99.90
64951;DHT22;51482;47.014;7.652;2024-03-08T06:11:15;-1.40;99.90
64951;DHT22;51482;47.014;7.652;2024-03-08T06:13:43;-0.70;99.90
64951;DHT22;51482;47.014;7.652;2024-03-08T06:16:08;-1.40;99.90
64951;DHT22;51482;47.014;7.652;2024-03-08T06:18:35;-0.80;99.90
64951;DHT22;51482;47.014;7.652;2024-03-08T06:21:04;-1.20;99.90
64951;DHT22;51482;47.014;7.652;2024-03-08T06:23:38;-0.80;99.90
64951;DHT22;51482;47.014;7.652;2024-03-08T06:26:05;-1.10;99.90
64951;DHT22;51482;47.014;7.652;2024-03-08T06:28:30;0.50;99.90
64951;DHT22;51482;47.014;7.652;2024-03-08T06:30:58;-0.10;99.90
64951;DHT22;51482;47.014;7.652;2024-03-08T06:33:24;-0.20;99.90
64951;DHT22;51482;47.014;7.652;2024-03-08T06:35:52;0.20;99.90
64951;DHT22;51482;47.014;7.652;2024-03-08T06:38:17;0.00;99.90
64951;DHT22;51482;47.014;7.652;2024-03-08T06:40:43;-0.30;99.90
64951;DHT22;51482;47.014;7.652;2024-03-08T06:43:09;0.00;99.90
64951;DHT22;51482;47.014;7.652;2024-03-08T06:45:36;-0.40;99.90
64951;DHT22;51482;47.014;7.652;2024-03-08T06:48:03;-0.10;99.90
64951;DHT22;51482;47.014;7.652;2024-03-08T06:50:29;0.20;99.90
64951;DHT22;51482;47.014;7.652;2024-03-08T06:52:54;-0.70;99.90
64951;DHT22;51482;47.014;7.652;2024-03-08T06:55:20;0.60;99.90
64951;DHT22;51482;47.014;7.652;2024-03-08T06:57:46;0.30;99.90
64951;DHT22;51482;47.014;7.652;2024-03-08T07:00:12;0.30;99.90
64951;DHT22;51482;47.014;7.652;2024-03-08T07:02:46;0.30;99.90
64951;DHT22;51482;47.014;7.652;2024-03-08T07:05:14;0.30;99.90
64951;DHT22;51482;47.014;7.652;2024-03-08T07:07:40;0.70;99.90
64951;DHT22;51482;47.014;7.652;2024-03-08T07:10:07;0.50;99.90
64951;DHT22;51482;47.014;7.652;2024-03-08T07:12:37;0.90;99.90
64951;DHT22;51482;47.014;7.652;2024-03-08T07:15:04;1.60;99.90
64951;DHT22;51482;47.014;7.652;2024-03-08T07:17:30;0.60;99.90
64951;DHT22;51482;47.014;7.652;2024-03-08T07:19:56;0.90;99.90
64951;DHT22;51482;47.014;7.652;2024-03-08T07:22:24;0.90;99.90
64951;DHT22;51482;47.014;7.652;2024-03-08T07:24:50;1.20;99.90
64951;DHT22;51482;47.014;7.652;2024-03-08T07:27:41;0.40;99.90
64951;DHT22;51482;47.014;7.652;2024-03-08T07:30:07;1.50;99.90
64951;DHT22;51482;47.014;7.652;2024-03-08T07:32:35;0.90;99.90
64951;DHT22;51482;47.014;7.652;2024-03-08T07:35:01;1.50;99.90
64951;DHT22;51482;47.014;7.652;2024-03-08T07:37:29;0.70;99.90
64951;DHT22;51482;47.014;7.652;2024-03-08T07:39:54;0.60;99.90
64951;DHT22;51482;47.014;7.652;2024-03-08T07:42:20;1.40;99.90
64951;DHT22;51482;47.014;7.652;2024-03-08T07:44:47;0.60;99.90
64951;DHT22;51482;47.014;7.652;2024-03-08T07:47:13;2.00;99.90
64951;DHT22;51482;47.014;7.652;2024-03-08T07:49:39;1.50;99.90
64951;DHT22;51482;47.014;7.652;2024-03-08T07:52:05;1.70;99.90
64951;DHT22;51482;47.014;7.652;2024-03-08T07:54:33;1.40;99.90
64951;DHT22;51482;47.014;7.652;2024-03-08T07:56:59;1.10;99.90
64951;DHT22;51482;47.014;7.652;2024-03-08T07:59:24;1.40;99.90
64951;DHT22;51482;47.014;7.652;2024-03-08T08:01:50;1.80;99.90
64951;DHT22;51482;47.014;7.652;2024-03-08T08:04:15;1.90;99.90
64951;DHT22;51482;47.014;7.652;2024-03-08T08:06:43;1.80;99.90
64951;DHT22;51482;47.014;7.652;2024-03-08T08:09:09;2.30;99.90
64951;DHT22;51482;47.014;7.652;2024-03-08T08:11:41;1.50;99.90
64951;DHT22;51482;47.014;7.652;2024-03-08T08:14:09;2.50;99.90
64951;DHT22;51482;47.014;7.652;2024-03-08T08:16:35;2.00;99.90
64951;DHT22;51482;47.014;7.652;2024-03-08T08:19:02;1.90;99.90
64951;DHT22;51482;47.014;7.652;2024-03-08T08:21:35;1.50;99.90
64951;DHT22;51482;47.014;7.652;2024-03-08T08:24:04;3.20;99.90
64951;DHT22;51482;47.014;7.652;2024-03-08T08:26:30;3.80;99.90
64951;DHT22;51482;47.014;7.652;2024-03-08T08:28:56;5.00;99.90
64951;DHT22;51482;47.014;7.652;2024-03-08T08:31:21;6.10;99.90
64951;DHT22;51482;47.014;7.652;2024-03-08T08:33:47;6.00;99.90
64951;DHT22;51482;47.014;7.652;2024-03-08T08:36:14;7.00;99.90
64951;DHT22;51482;47.014;7.652;2024-03-08T08:38:40;6.70;99.90
64951;DHT22;51482;47.014;7.652;2024-03-08T08:41:09;6.70;99.90
64951;DHT22;51482;47.014;7.652;2024-03-08T08:43:35;7.10;99.90
64951;DHT22;51482;47.014;7.652;2024-03-08T08:46:00;6.60;99.90
64951;DHT22;51482;47.014;7.652;2024-03-08T08:48:26;6.00;99.90
64951;DHT22;51482;47.014;7.652;2024-03-08T08:50:53;5.30;99.90
64951;DHT22;51482;47.014;7.652;2024-03-08T08:53:19;4.90;99.90
64951;DHT22;51482;47.014;7.652;2024-03-08T08:55:44;4.50;99.90
64951;DHT22;51482;47.014;7.652;2024-03-08T08:58:11;4.80;99.90
64951;DHT22;51482;47.014;7.652;2024-03-08T09:00:36;4.10;99.90
64951;DHT22;51482;47.014;7.652;2024-03-08T09:03:02;4.50;99.90
64951;DHT22;51482;47.014;7.652;2024-03-08T09:05:28;3.90;99.90
64951;DHT22;51482;47.014;7.652;2024-03-08T09:07:54;4.30;99.90
64951;DHT22;51482;47.014;7.652;2024-03-08T09:10:20;4.00;99.90
64951;DHT22;51482;47.014;7.652;2024-03-08T09:12:46;4.20;99.90
64951;DHT22;51482;47.014;7.652;2024-03-08T09:15:12;4.20;99.90
64951;DHT22;51482;47.014;7.652;2024-03-08T09:17:38;3.50;99.90
64951;DHT22;51482;47.014;7.652;2024-03-08T09:20:06;4.20;99.90
64951;DHT22;51482;47.014;7.652;2024-03-08T09:22:32;3.70;99.90
64951;DHT22;51482;47.014;7.652;2024-03-08T09:24:57;4.40;99.90
64951;DHT22;51482;47.014;7.652;2024-03-08T09:27:23;4.50;99.90
64951;DHT22;51482;47.014;7.652;2024-03-08T09:29:49;4.50;99.90
64951;DHT22;51482;47.014;7.652;2024-03-08T09:32:15;3.80;99.90
64951;DHT22;51482;47.014;7.652;2024-03-08T09:34:40;4.40;99.90
64951;DHT22;51482;47.014;7.652;2024-03-08T09:37:06;4.70;99.90
64951;DHT22;51482;47.014;7.652;2024-03-08T09:39:31;4.70;99.90
64951;DHT22;51482;47.014;7.652;2024-03-08T09:41:58;4.10;99.90
64951;DHT22;51482;47.014;7.652;2024-03-08T09:44:24;4.30;99.90
64951;DHT22;51482;47.014;7.652;2024-03-08T09:46:50;4.80;99.90
64951;DHT22;51482;47.014;7.652;2024-03-08T09:49:19;4.20;99.90
64951;DHT22;51482;47.014;7.652;2024-03-08T09:51:45;4.30;99.90
64951;DHT22;51482;47.014;7.652;2024-03-08T09:54:11;4.20;99.90
64951;DHT22;51482;47.014;7.652;2024-03-08T09:56:39;4.80;99.90
64951;DHT22;51482;47.014;7.652;2024-03-08T09:59:09;4.90;99.90
64951;DHT22;51482;47.014;7.652;2024-03-08T10:01:53;4.10;99.90
64951;DHT22;51482;47.014;7.652;2024-03-08T10:04:22;4.20;99.90
64951;DHT22;51482;47.014;7.652;2024-03-08T10:06:47;4.70;99.90
64951;DHT22;51482;47.014;7.652;2024-03-08T10:09:14;4.10;99.90
64951;DHT22;51482;47.014;7.652;2024-03-08T10:11:42;4.00;99.90
64951;DHT22;51482;47.014;7.652;2024-03-08T10:14:09;4.70;99.90
64951;DHT22;51482;47.014;7.652;2024-03-08T10:16:34;4.20;99.90
64951;DHT22;51482;47.014;7.652;2024-03-08T10:19:00;4.40;99.90
64951;DHT22;51482;47.014;7.652;2024-03-08T10:21:26;4.30;99.90
64951;DHT22;51482;47.014;7.652;2024-03-08T10:23:52;4.90;99.90
64951;DHT22;51482;47.014;7.652;2024-03-08T10:26:18;5.00;99.90
64951;DHT22;51482;47.014;7.652;2024-03-08T10:28:47;3.80;99.90
64951;DHT22;51482;47.014;7.652;2024-03-08T10:31:16;4.60;99.90
64951;DHT22;51482;47.014;7.652;2024-03-08T10:33:42;4.20;99.90
64951;DHT22;51482;47.014;7.652;2024-03-08T10:36:08;5.60;99.90
64951;DHT22;51482;47.014;7.652;2024-03-08T10:38:42;5.70;99.90
64951;DHT22;51482;47.014;7.652;2024-03-08T10:41:12;5.60;99.90
64951;DHT22;51482;47.014;7.652;2024-03-08T10:49:17;5.50;99.90
64951;DHT22;51482;47.014;7.652;2024-03-08T10:51:43;5.90;99.90
64951;DHT22;51482;47.014;7.652;2024-03-08T10:54:10;5.40;99.90
64951;DHT22;51482;47.014;7.652;2024-03-08T10:56:37;5.90;99.90
64951;DHT22;51482;47.014;7.652;2024-03-08T10:59:03;5.40;99.90
64951;DHT22;51482;47.014;7.652;2024-03-08T11:01:30;5.70;99.90
64951;DHT22;51482;47.014;7.652;2024-03-08T11:03:56;5.80;99.90
64951;DHT22;51482;47.014;7.652;2024-03-08T11:09:01;6.00;99.90
64951;DHT22;51482;47.014;7.652;2024-03-08T11:11:33;6.50;99.90
64951;DHT22;51482;47.014;7.652;2024-03-08T11:14:02;6.10;99.90
64951;DHT22;51482;47.014;7.652;2024-03-08T11:19:00;7.10;99.90
64951;DHT22;51482;47.014;7.652;2024-03-08T11:21:36;6.30;99.90
64951;DHT22;51482;47.014;7.652;2024-03-08T11:24:12;6.20;99.90
64951;DHT22;51482;47.014;7.652;2024-03-08T11:26:42;6.80;99.90
64951;DHT22;51482;47.014;7.652;2024-03-08T11:34:35;6.50;99.90
64951;DHT22;51482;47.014;7.652;2024-03-08T11:37:04;6.10;99.90
64951;DHT22;51482;47.014;7.652;2024-03-08T11:39:31;6.60;99.90
64951;DHT22;51482;47.014;7.652;2024-03-08T11:41:57;6.80;99.90
64951;DHT22;51482;47.014;7.652;2024-03-08T11:44:26;7.40;99.90
64951;DHT22;51482;47.014;7.652;2024-03-08T11:46:53;7.00;99.90
64951;DHT22;51482;47.014;7.652;2024-03-08T11:49:19;7.10;99.90
64951;DHT22;51482;47.014;7.652;2024-03-08T11:51:45;7.40;99.90
64951;DHT22;51482;47.014;7.652;2024-03-08T11:54:12;7.10;99.90
64951;DHT22;51482;47.014;7.652;2024-03-08T11:56:40;7.00;99.90
64951;DHT22;51482;47.014;7.652;2024-03-08T11:59:11;7.70;99.90
64951;DHT22;51482;47.014;7.652;2024-03-08T12:01:38;8.80;99.90
64951;DHT22;51482;47.014;7.652;2024-03-08T12:04:04;8.50;99.90
64951;DHT22;51482;47.014;7.652;2024-03-08T12:06:38;8.70;99.90
64951;DHT22;51482;47.014;7.652;2024-03-08T12:09:08;9.40;99.90
64951;DHT22;51482;47.014;7.652;2024-03-08T12:11:34;9.50;99.90
64951;DHT22;51482;47.014;7.652;2024-03-08T12:14:01;10.10;99.90
64951;DHT22;51482;47.014;7.652;2024-03-08T12:16:27;10.30;99.90
64951;DHT22;51482;47.014;7.652;2024-03-08T12:18:53;10.90;99.90
64951;DHT22;51482;47.014;7.652;2024-03-08T12:21:19;10.40;99.90
64951;DHT22;51482;47.014;7.652;2024-03-08T12:24:09;10.50;99.90
64951;DHT22;51482;47.014;7.652;2024-03-08T12:26:37;10.70;99.90
64951;DHT22;51482;47.014;7.652;2024-03-08T12:29:25;11.40;99.90
64951;DHT22;51482;47.014;7.652;2024-03-08T12:31:55;12.70;99.90
64951;DHT22;51482;47.014;7.652;2024-03-08T12:34:21;13.10;99.90
64951;DHT22;51482;47.014;7.652;2024-03-08T12:36:47;13.20;99.90
64951;DHT22;51482;47.014;7.652;2024-03-08T12:39:16;13.40;99.90
64951;DHT22;51482;47.014;7.652;2024-03-08T12:41:43;14.30;99.90
64951;DHT22;51482;47.014;7.652;2024-03-08T12:44:09;14.10;99.90
64951;DHT22;51482;47.014;7.652;2024-03-08T12:46:37;14.10;99.10
64951;DHT22;51482;47.014;7.652;2024-03-08T12:49:09;14.40;99.90
64951;DHT22;51482;47.014;7.652;2024-03-08T12:51:38;14.80;99.90
64951;DHT22;51482;47.014;7.652;2024-03-08T12:54:04;15.00;98.50
64951;DHT22;51482;47.014;7.652;2024-03-08T12:56:33;15.20;98.70
64951;DHT22;51482;47.014;7.652;2024-03-08T12:59:02;15.60;98.00
64951;DHT22;51482;47.014;7.652;2024-03-08T13:01:28;15.80;95.50
64951;DHT22;51482;47.014;7.652;2024-03-08T13:03:54;15.80;93.70
64951;DHT22;51482;47.014;7.652;2024-03-08T13:06:21;16.10;92.80
64951;DHT22;51482;47.014;7.652;2024-03-08T13:08:52;15.80;93.90
64951;DHT22;51482;47.014;7.652;2024-03-08T13:11:19;15.30;94.30
64951;DHT22;51482;47.014;7.652;2024-03-08T13:13:45;16.00;95.50
64951;DHT22;51482;47.014;7.652;2024-03-08T13:16:11;15.30;93.70
64951;DHT22;51482;47.014;7.652;2024-03-08T13:18:40;14.90;93.70
64951;DHT22;51482;47.014;7.652;2024-03-08T13:21:07;14.40;93.70
64951;DHT22;51482;47.014;7.652;2024-03-08T13:23:35;14.40;95.20
64951;DHT22;51482;47.014;7.652;2024-03-08T13:26:08;14.50;96.00
64951;DHT22;51482;47.014;7.652;2024-03-08T13:28:34;13.30;95.50
64951;DHT22;51482;47.014;7.652;2024-03-08T13:31:06;13.30;96.50
64951;DHT22;51482;47.014;7.652;2024-03-08T13:33:35;13.50;97.10
64951;DHT22;51482;47.014;7.652;2024-03-08T13:36:05;13.40;97.00
64951;DHT22;51482;47.014;7.652;2024-03-08T13:38:32;13.30;98.20
64951;DHT22;51482;47.014;7.652;2024-03-08T13:40:58;13.10;98.40
64951;DHT22;51482;47.014;7.652;2024-03-08T13:43:24;12.40;98.70
64951;DHT22;51482;47.014;7.652;2024-03-08T13:45:49;12.70;98.40
64951;DHT22;51482;47.014;7.652;2024-03-08T13:48:15;12.60;99.50
64951;DHT22;51482;47.014;7.652;2024-03-08T13:50:41;12.70;99.90
64951;DHT22;51482;47.014;7.652;2024-03-08T13:53:07;13.00;99.90
64951;DHT22;51482;47.014;7.652;2024-03-08T13:55:32;13.50;99.30
64951;DHT22;51482;47.014;7.652;2024-03-08T13:57:58;13.80;98.20
64951;DHT22;51482;47.014;7.652;2024-03-08T14:00:25;13.90;97.70
64951;DHT22;51482;47.014;7.652;2024-03-08T14:02:53;13.80;98.10
64951;DHT22;51482;47.014;7.652;2024-03-08T14:05:19;14.60;98.20
64951;DHT22;51482;47.014;7.652;2024-03-08T14:07:45;15.20;96.90
64951;DHT22;51482;47.014;7.652;2024-03-08T14:10:14;15.70;96.00
64951;DHT22;51482;47.014;7.652;2024-03-08T14:12:40;15.70;93.80
64951;DHT22;51482;47.014;7.652;2024-03-08T14:15:08;16.60;94.40
64951;DHT22;51482;47.014;7.652;2024-03-08T14:17:34;16.00;93.30
64951;DHT22;51482;47.014;7.652;2024-03-08T14:20:01;15.70;93.20
64951;DHT22;51482;47.014;7.652;2024-03-08T14:22:26;15.70;93.90
64951;DHT22;51482;47.014;7.652;2024-03-08T14:24:52;15.30;93.40
64951;DHT22;51482;47.014;7.652;2024-03-08T14:27:18;15.30;93.70
64951;DHT22;51482;47.014;7.652;2024-03-08T14:29:44;14.30;93.10
64951;DHT22;51482;47.014;7.652;2024-03-08T14:32:10;13.90;94.90
64951;DHT22;51482;47.014;7.652;2024-03-08T14:34:36;13.70;95.80
64951;DHT22;51482;47.014;7.652;2024-03-08T14:37:01;13.70;96.50
64951;DHT22;51482;47.014;7.652;2024-03-08T14:39:31;13.30;96.70
64951;DHT22;51482;47.014;7.652;2024-03-08T14:41:58;14.40;97.80
64951;DHT22;51482;47.014;7.652;2024-03-08T14:44:25;13.60;96.50
64951;DHT22;51482;47.014;7.652;2024-03-08T14:46:55;13.80;97.70
64951;DHT22;51482;47.014;7.652;2024-03-08T14:49:22;14.20;97.10
64951;DHT22;51482;47.014;7.652;2024-03-08T14:51:48;13.70;97.80
64951;DHT22;51482;47.014;7.652;2024-03-08T14:54:13;14.00;97.20
64951;DHT22;51482;47.014;7.652;2024-03-08T14:56:39;14.60;97.20
64951;DHT22;51482;47.014;7.652;2024-03-08T14:59:08;14.70;97.20
64951;DHT22;51482;47.014;7.652;2024-03-08T15:01:35;14.20;97.00
64951;DHT22;51482;47.014;7.652;2024-03-08T15:04:02;14.50;96.10
64951;DHT22;51482;47.014;7.652;2024-03-08T15:06:37;15.70;96.90
64951;DHT22;51482;47.014;7.652;2024-03-08T15:09:04;15.00;95.50
64951;DHT22;51482;47.014;7.652;2024-03-08T15:11:40;14.70;96.10
64951;DHT22;51482;47.014;7.652;2024-03-08T15:14:06;15.30;97.00
64951;DHT22;51482;47.014;7.652;2024-03-08T15:16:37;15.20;96.10
64951;DHT22;51482;47.014;7.652;2024-03-08T15:19:05;15.20;99.90
64951;DHT22;51482;47.014;7.652;2024-03-08T15:21:31;15.60;99.90
64951;DHT22;51482;47.014;7.652;2024-03-08T15:23:56;15.00;99.90
64951;DHT22;51482;47.014;7.652;2024-03-08T15:26:22;15.10;99.90
64951;DHT22;51482;47.014;7.652;2024-03-08T15:28:47;14.80;99.90
64951;DHT22;51482;47.014;7.652;2024-03-08T15:31:17;14.20;98.60
64951;DHT22;51482;47.014;7.652;2024-03-08T15:33:44;13.90;99.90
64951;DHT22;51482;47.014;7.652;2024-03-08T15:36:17;13.80;99.90
64951;DHT22;51482;47.014;7.652;2024-03-08T15:38:43;13.70;99.90
64951;DHT22;51482;47.014;7.652;2024-03-08T15:41:10;13.30;99.90
64951;DHT22;51482;47.014;7.652;2024-03-08T15:43:38;13.40;99.90
64951;DHT22;51482;47.014;7.652;2024-03-08T15:46:08;14.40;99.90
64951;DHT22;51482;47.014;7.652;2024-03-08T15:48:34;14.00;99.90
64951;DHT22;51482;47.014;7.652;2024-03-08T15:51:06;13.50;99.90
64951;DHT22;51482;47.014;7.652;2024-03-08T15:53:33;14.60;99.90